sensor_id;sensor_type;location;lat;lon;timestamp;temperature;humidity
19039;DHT22;9652;49.014;12.052;2023-07-24T00:01:28;23.40;48.90
19039;DHT22;9652;49.014;12.052;2023-07-24T00:03:55;23.40;48.80
19039;DHT22;9652;49.014;12.052;2023-07-24T00:06:24;23.40;48.70
19039;DHT22;9652;49.014;12.052;2023-07-24T00:08:51;23.40;48.60
19039;DHT22;9652;49.014;12.052;2023-07-24T00:11:19;23.40;48.50
19039;DHT22;9652;49.014;12.052;2023-07-24T00:13:46;23.40;48.50
19039;DHT22;9652;49.014;12.052;2023-07-24T00:16:13;23.40;48.40
19039;DHT22;9652;49.014;12.052;2023-07-24T00:18:40;23.30;49.00
19039;DHT22;9652;49.014;12.052;2023-07-24T00:21:07;23.20;48.50
19039;DHT22;9652;49.014;12.052;2023-07-24T00:23:36;23.30;48.60
19039;DHT22;9652;49.014;12.052;2023-07-24T00:26:03;23.10;48.60
19039;DHT22;9652;49.014;12.052;2023-07-24T00:28:32;23.10;48.80
19039;DHT22;9652;49.014;12.052;2023-07-24T00:30:59;23.20;49.10
19039;DHT22;9652;49.014;12.052;2023-07-24T00:33:26;23.00;48.90
19039;DHT22;9652;49.014;12.052;2023-07-24T00:35:55;23.00;49.00
19039;DHT22;9652;49.014;12.052;2023-07-24T00:38:23;23.00;49.20
19039;DHT22;9652;49.014;12.052;2023-07-24T00:40:50;23.00;49.20
19039;DHT22;9652;49.014;12.052;2023-07-24T00:43:17;22.90;49.20
19039;DHT22;9652;49.014;12.052;2023-07-24T00:45:46;22.90;49.30
19039;DHT22;9652;49.014;12.052;2023-07-24T00:48:14;22.90;49.50
19039;DHT22;9652;49.014;12.052;2023-07-24T00:50:42;22.80;49.40
19039;DHT22;9652;49.014;12.052;2023-07-24T00:53:11;22.80;49.50
19039;DHT22;9652;49.014;12.052;2023-07-24T00:55:40;22.80;49.70
19039;DHT22;9652;49.014;12.052;2023-07-24T00:58:10;22.80;49.80
19039;DHT22;9652;49.014;12.052;2023-07-24T01:00:38;22.70;50.00
19039;DHT22;9652;49.014;12.052;2023-07-24T01:03:09;22.70;50.00
19039;DHT22;9652;49.014;12.052;2023-07-24T01:05:38;22.80;50.10
19039;DHT22;9652;49.014;12.052;2023-07-24T01:08:06;22.80;50.10
19039;DHT22;9652;49.014;12.052;2023-07-24T01:10:34;22.80;50.20
19039;DHT22;9652;49.014;12.052;2023-07-24T01:13:05;22.80;50.20
19039;DHT22;9652;49.014;12.052;2023-07-24T01:15:47;22.80;50.20
19039;DHT22;9652;49.014;12.052;2023-07-24T01:18:17;22.90;50.10
19039;DHT22;9652;49.014;12.052;2023-07-24T01:20:52;22.90;50.10
19039;DHT22;9652;49.014;12.052;2023-07-24T01:23:31;22.90;50.00
19039;DHT22;9652;49.014;12.052;2023-07-24T01:26:07;22.90;50.10
19039;DHT22;9652;49.014;12.052;2023-07-24T01:28:34;23.00;49.80
19039;DHT22;9652;49.014;12.052;2023-07-24T01:31:02;23.00;49.60
19039;DHT22;9652;49.014;12.052;2023-07-24T01:33:29;22.90;49.50
19039;DHT22;9652;49.014;12.052;2023-07-24T01:35:59;22.90;49.50
19039;DHT22;9652;49.014;12.052;2023-07-24T01:38:27;23.00;49.50
19039;DHT22;9652;49.014;12.052;2023-07-24T01:40:57;23.00;49.40
19039;DHT22;9652;49.014;12.052;2023-07-24T01:43:26;23.10;49.40
19039;DHT22;9652;49.014;12.052;2023-07-24T01:45:54;23.20;49.40
19039;DHT22;9652;49.014;12.052;2023-07-24T01:48:22;23.20;49.30
19039;DHT22;9652;49.014;12.052;2023-07-24T01:50:49;23.20;49.20
19039;DHT22;9652;49.014;12.052;2023-07-24T01:53:16;23.30;49.00
19039;DHT22;9652;49.014;12.052;2023-07-24T01:55:43;23.30;48.90
19039;DHT22;9652;49.014;12.052;2023-07-24T01:58:09;23.30;48.90
19039;DHT22;9652;49.014;12.052;2023-07-24T02:00:38;23.30;48.80
19039;DHT22;9652;49.014;12.052;2023-07-24T02:03:05;23.30;48.80
19039;DHT22;9652;49.014;12.052;2023-07-24T02:05:32;23.20;48.70
19039;DHT22;9652;49.014;12.052;2023-07-24T02:08:00;23.20;48.80
19039;DHT22;9652;49.014;12.052;2023-07-24T02:10:27;23.10;48.80
19039;DHT22;9652;49.014;12.052;2023-07-24T02:12:54;23.10;49.00
19039;DHT22;9652;49.014;12.052;2023-07-24T02:15:21;23.10;49.00
19039;DHT22;9652;49.014;12.052;2023-07-24T02:17:49;23.10;49.20
19039;DHT22;9652;49.014;12.052;2023-07-24T02:20:16;23.10;49.30
19039;DHT22;9652;49.014;12.052;2023-07-24T02:22:43;23.10;49.30
19039;DHT22;9652;49.014;12.052;2023-07-24T02:25:10;23.10;49.30
19039;DHT22;9652;49.014;12.052;2023-07-24T02:27:38;23.00;49.20
19039;DHT22;9652;49.014;12.052;2023-07-24T02:30:06;23.00;49.30
19039;DHT22;9652;49.014;12.052;2023-07-24T02:32:34;23.00;49.20
19039;DHT22;9652;49.014;12.052;2023-07-24T02:35:03;23.00;49.10
19039;DHT22;9652;49.014;12.052;2023-07-24T02:37:31;23.00;49.10
19039;DHT22;9652;49.014;12.052;2023-07-24T02:39:58;23.00;49.00
19039;DHT22;9652;49.014;12.052;2023-07-24T02:42:26;22.90;48.90
19039;DHT22;9652;49.014;12.052;2023-07-24T02:44:53;22.90;48.90
19039;DHT22;9652;49.014;12.052;2023-07-24T02:47:21;22.80;48.80
19039;DHT22;9652;49.014;12.052;2023-07-24T02:49:48;22.70;48.80
19039;DHT22;9652;49.014;12.052;2023-07-24T02:52:16;22.80;48.90
19039;DHT22;9652;49.014;12.052;2023-07-24T02:54:43;22.70;48.90
19039;DHT22;9652;49.014;12.052;2023-07-24T02:57:11;22.70;48.90
19039;DHT22;9652;49.014;12.052;2023-07-24T02:59:38;22.70;48.90
19039;DHT22;9652;49.014;12.052;2023-07-24T03:02:05;22.60;49.00
19039;DHT22;9652;49.014;12.052;2023-07-24T03:04:32;22.60;49.00
19039;DHT22;9652;49.014;12.052;2023-07-24T03:06:59;22.60;49.10
19039;DHT22;9652;49.014;12.052;2023-07-24T03:09:27;22.50;49.00
19039;DHT22;9652;49.014;12.052;2023-07-24T03:11:54;22.50;49.10
19039;DHT22;9652;49.014;12.052;2023-07-24T03:14:23;22.50;49.80
19039;DHT22;9652;49.014;12.052;2023-07-24T03:16:51;22.40;49.20
19039;DHT22;9652;49.014;12.052;2023-07-24T03:19:18;22.40;49.20
19039;DHT22;9652;49.014;12.052;2023-07-24T03:21:45;22.40;49.30
19039;DHT22;9652;49.014;12.052;2023-07-24T03:24:12;22.40;49.40
19039;DHT22;9652;49.014;12.052;2023-07-24T03:26:41;22.40;49.50
19039;DHT22;9652;49.014;12.052;2023-07-24T03:29:08;22.40;49.60
19039;DHT22;9652;49.014;12.052;2023-07-24T03:31:35;22.40;49.70
19039;DHT22;9652;49.014;12.052;2023-07-24T03:34:02;22.40;49.80
19039;DHT22;9652;49.014;12.052;2023-07-24T03:36:29;22.40;49.80
19039;DHT22;9652;49.014;12.052;2023-07-24T03:38:56;22.40;49.80
19039;DHT22;9652;49.014;12.052;2023-07-24T03:41:23;22.40;49.90
19039;DHT22;9652;49.014;12.052;2023-07-24T03:43:55;22.40;50.00
19039;DHT22;9652;49.014;12.052;2023-07-24T03:46:23;22.40;50.10
19039;DHT22;9652;49.014;12.052;2023-07-24T03:48:50;22.40;50.00
19039;DHT22;9652;49.014;12.052;2023-07-24T03:51:17;22.40;50.10
19039;DHT22;9652;49.014;12.052;2023-07-24T03:53:44;22.40;50.20
19039;DHT22;9652;49.014;12.052;2023-07-24T03:56:11;22.50;50.30
19039;DHT22;9652;49.014;12.052;2023-07-24T03:58:38;22.50;50.50
19039;DHT22;9652;49.014;12.052;2023-07-24T04:01:07;22.50;50.50
19039;DHT22;9652;49.014;12.052;2023-07-24T04:03:35;22.60;50.60
19039;DHT22;9652;49.014;12.052;2023-07-24T04:06:02;22.60;50.70
19039;DHT22;9652;49.014;12.052;2023-07-24T04:08:29;22.60;50.70
19039;DHT22;9652;49.014;12.052;2023-07-24T04:10:57;22.60;50.70
19039;DHT22;9652;49.014;12.052;2023-07-24T04:13:24;22.70;50.80
19039;DHT22;9652;49.014;12.052;2023-07-24T04:15:51;22.70;51.30
19039;DHT22;9652;49.014;12.052;2023-07-24T04:18:19;22.70;50.60
19039;DHT22;9652;49.014;12.052;2023-07-24T04:20:46;22.70;50.60
19039;DHT22;9652;49.014;12.052;2023-07-24T04:23:13;22.80;50.50
19039;DHT22;9652;49.014;12.052;2023-07-24T04:25:40;22.80;50.50
19039;DHT22;9652;49.014;12.052;2023-07-24T04:28:07;22.80;50.40
19039;DHT22;9652;49.014;12.052;2023-07-24T04:30:35;22.80;50.40
19039;DHT22;9652;49.014;12.052;2023-07-24T04:33:02;22.80;51.00
19039;DHT22;9652;49.014;12.052;2023-07-24T04:35:30;22.90;50.60
19039;DHT22;9652;49.014;12.052;2023-07-24T04:37:57;22.90;50.70
19039;DHT22;9652;49.014;12.052;2023-07-24T04:40:24;22.90;50.60
19039;DHT22;9652;49.014;12.052;2023-07-24T04:42:51;23.00;50.70
19039;DHT22;9652;49.014;12.052;2023-07-24T04:45:18;23.00;50.70
19039;DHT22;9652;49.014;12.052;2023-07-24T04:47:46;23.00;50.70
19039;DHT22;9652;49.014;12.052;2023-07-24T04:50:13;23.10;50.80
19039;DHT22;9652;49.014;12.052;2023-07-24T04:52:41;23.10;50.90
19039;DHT22;9652;49.014;12.052;2023-07-24T04:55:08;23.10;51.00
19039;DHT22;9652;49.014;12.052;2023-07-24T04:57:35;23.20;50.90
19039;DHT22;9652;49.014;12.052;2023-07-24T05:00:03;23.30;51.00
19039;DHT22;9652;49.014;12.052;2023-07-24T05:02:31;23.20;51.00
19039;DHT22;9652;49.014;12.052;2023-07-24T05:04:58;23.30;51.00
19039;DHT22;9652;49.014;12.052;2023-07-24T05:07:25;23.30;51.00
19039;DHT22;9652;49.014;12.052;2023-07-24T05:09:54;23.30;51.00
19039;DHT22;9652;49.014;12.052;2023-07-24T05:12:21;23.40;51.10
19039;DHT22;9652;49.014;12.052;2023-07-24T05:14:48;23.40;51.00
19039;DHT22;9652;49.014;12.052;2023-07-24T05:17:15;23.40;51.00
19039;DHT22;9652;49.014;12.052;2023-07-24T05:19:42;23.40;50.90
19039;DHT22;9652;49.014;12.052;2023-07-24T05:22:09;23.30;50.80
19039;DHT22;9652;49.014;12.052;2023-07-24T05:24:37;23.40;50.80
19039;DHT22;9652;49.014;12.052;2023-07-24T05:27:05;23.40;50.80
19039;DHT22;9652;49.014;12.052;2023-07-24T05:29:33;23.30;50.50
19039;DHT22;9652;49.014;12.052;2023-07-24T05:32:00;23.30;50.80
19039;DHT22;9652;49.014;12.052;2023-07-24T05:34:27;23.30;50.90
19039;DHT22;9652;49.014;12.052;2023-07-24T05:36:54;23.30;51.00
19039;DHT22;9652;49.014;12.052;2023-07-24T05:39:21;23.20;51.10
19039;DHT22;9652;49.014;12.052;2023-07-24T05:41:48;23.30;51.30
19039;DHT22;9652;49.014;12.052;2023-07-24T05:44:17;23.30;51.40
19039;DHT22;9652;49.014;12.052;2023-07-24T05:46:44;23.30;51.60
19039;DHT22;9652;49.014;12.052;2023-07-24T05:49:11;23.40;51.70
19039;DHT22;9652;49.014;12.052;2023-07-24T05:51:38;23.40;51.60
19039;DHT22;9652;49.014;12.052;2023-07-24T05:54:05;23.50;51.70
19039;DHT22;9652;49.014;12.052;2023-07-24T05:56:32;23.60;51.50
19039;DHT22;9652;49.014;12.052;2023-07-24T05:58:59;23.70;51.50
19039;DHT22;9652;49.014;12.052;2023-07-24T06:01:27;23.80;51.50
19039;DHT22;9652;49.014;12.052;2023-07-24T06:03:54;23.90;51.50
19039;DHT22;9652;49.014;12.052;2023-07-24T06:06:21;24.00;51.50
19039;DHT22;9652;49.014;12.052;2023-07-24T06:08:48;24.10;51.50
19039;DHT22;9652;49.014;12.052;2023-07-24T06:11:16;24.30;51.50
19039;DHT22;9652;49.014;12.052;2023-07-24T06:13:43;24.40;51.40
19039;DHT22;9652;49.014;12.052;2023-07-24T06:16:10;24.60;51.30
19039;DHT22;9652;49.014;12.052;2023-07-24T06:18:40;24.70;51.00
19039;DHT22;9652;49.014;12.052;2023-07-24T06:21:08;24.80;50.70
19039;DHT22;9652;49.014;12.052;2023-07-24T06:23:35;25.00;50.50
19039;DHT22;9652;49.014;12.052;2023-07-24T06:26:02;25.10;50.30
19039;DHT22;9652;49.014;12.052;2023-07-24T06:28:29;25.10;50.10
19039;DHT22;9652;49.014;12.052;2023-07-24T06:30:57;25.20;50.10
19039;DHT22;9652;49.014;12.052;2023-07-24T06:33:24;25.30;50.00
19039;DHT22;9652;49.014;12.052;2023-07-24T06:35:53;25.30;49.90
19039;DHT22;9652;49.014;12.052;2023-07-24T06:38:20;25.30;49.80
19039;DHT22;9652;49.014;12.052;2023-07-24T06:40:48;25.40;49.80
19039;DHT22;9652;49.014;12.052;2023-07-24T06:43:15;25.40;49.90
19039;DHT22;9652;49.014;12.052;2023-07-24T06:45:42;25.50;50.00
19039;DHT22;9652;49.014;12.052;2023-07-24T06:48:09;25.60;49.90
19039;DHT22;9652;49.014;12.052;2023-07-24T06:50:36;25.70;49.80
19039;DHT22;9652;49.014;12.052;2023-07-24T06:53:05;25.70;49.80
19039;DHT22;9652;49.014;12.052;2023-07-24T06:55:32;25.80;49.80
19039;DHT22;9652;49.014;12.052;2023-07-24T06:57:59;25.90;49.80
19039;DHT22;9652;49.014;12.052;2023-07-24T07:00:26;26.00;49.70
19039;DHT22;9652;49.014;12.052;2023-07-24T07:02:53;26.10;49.60
19039;DHT22;9652;49.014;12.052;2023-07-24T07:05:20;26.20;49.60
19039;DHT22;9652;49.014;12.052;2023-07-24T07:07:47;26.30;49.50
19039;DHT22;9652;49.014;12.052;2023-07-24T07:10:15;26.40;49.50
19039;DHT22;9652;49.014;12.052;2023-07-24T07:12:43;26.50;49.40
19039;DHT22;9652;49.014;12.052;2023-07-24T07:15:10;26.60;49.30
19039;DHT22;9652;49.014;12.052;2023-07-24T07:17:37;26.60;49.10
19039;DHT22;9652;49.014;12.052;2023-07-24T07:20:05;26.70;49.00
19039;DHT22;9652;49.014;12.052;2023-07-24T07:22:33;26.70;48.90
19039;DHT22;9652;49.014;12.052;2023-07-24T07:25:00;26.80;49.10
19039;DHT22;9652;49.014;12.052;2023-07-24T07:27:28;26.80;49.10
19039;DHT22;9652;49.014;12.052;2023-07-24T07:29:56;26.90;49.30
19039;DHT22;9652;49.014;12.052;2023-07-24T07:32:23;27.00;49.30
19039;DHT22;9652;49.014;12.052;2023-07-24T07:34:50;27.00;49.20
19039;DHT22;9652;49.014;12.052;2023-07-24T07:37:17;27.10;49.00
19039;DHT22;9652;49.014;12.052;2023-07-24T07:39:44;27.10;48.90
19039;DHT22;9652;49.014;12.052;2023-07-24T07:42:11;27.20;49.00
19039;DHT22;9652;49.014;12.052;2023-07-24T07:44:40;27.30;49.00
19039;DHT22;9652;49.014;12.052;2023-07-24T07:47:07;27.30;49.00
19039;DHT22;9652;49.014;12.052;2023-07-24T07:49:34;27.30;49.00
19039;DHT22;9652;49.014;12.052;2023-07-24T07:52:01;27.30;48.90
19039;DHT22;9652;49.014;12.052;2023-07-24T07:54:28;27.30;48.90
19039;DHT22;9652;49.014;12.052;2023-07-24T07:56:55;27.30;48.90
19039;DHT22;9652;49.014;12.052;2023-07-24T07:59:22;27.30;48.80
19039;DHT22;9652;49.014;12.052;2023-07-24T08:01:50;27.20;48.80
19039;DHT22;9652;49.014;12.052;2023-07-24T08:04:18;27.20;49.00
19039;DHT22;9652;49.014;12.052;2023-07-24T08:06:45;27.10;49.00
19039;DHT22;9652;49.014;12.052;2023-07-24T08:09:13;27.00;49.00
19039;DHT22;9652;49.014;12.052;2023-07-24T08:11:40;27.00;49.20
19039;DHT22;9652;49.014;12.052;2023-07-24T08:14:08;26.90;49.30
19039;DHT22;9652;49.014;12.052;2023-07-24T08:16:35;26.80;49.50
19039;DHT22;9652;49.014;12.052;2023-07-24T08:19:03;26.70;50.00
19039;DHT22;9652;49.014;12.052;2023-07-24T08:21:30;26.60;50.20
19039;DHT22;9652;49.014;12.052;2023-07-24T08:23:57;26.50;50.50
19039;DHT22;9652;49.014;12.052;2023-07-24T08:26:25;26.30;50.70
19039;DHT22;9652;49.014;12.052;2023-07-24T08:28:53;26.20;51.00
19039;DHT22;9652;49.014;12.052;2023-07-24T08:31:20;26.10;51.30
19039;DHT22;9652;49.014;12.052;2023-07-24T08:33:47;26.00;51.60
19039;DHT22;9652;49.014;12.052;2023-07-24T08:36:16;25.90;52.00
19039;DHT22;9652;49.014;12.052;2023-07-24T08:38:43;25.80;52.30
19039;DHT22;9652;49.014;12.052;2023-07-24T08:41:11;25.70;52.50
19039;DHT22;9652;49.014;12.052;2023-07-24T08:43:42;25.70;52.80
19039;DHT22;9652;49.014;12.052;2023-07-24T08:46:10;25.60;53.00
19039;DHT22;9652;49.014;12.052;2023-07-24T08:48:38;25.50;53.40
19039;DHT22;9652;49.014;12.052;2023-07-24T08:51:08;25.50;53.90
19039;DHT22;9652;49.014;12.052;2023-07-24T08:53:39;25.40;54.10
19039;DHT22;9652;49.014;12.052;2023-07-24T08:56:09;25.40;54.60
19039;DHT22;9652;49.014;12.052;2023-07-24T08:58:38;25.40;54.70
19039;DHT22;9652;49.014;12.052;2023-07-24T09:01:06;25.30;54.90
19039;DHT22;9652;49.014;12.052;2023-07-24T09:03:34;25.30;55.00
19039;DHT22;9652;49.014;12.052;2023-07-24T09:06:03;25.40;55.10
19039;DHT22;9652;49.014;12.052;2023-07-24T09:08:34;25.40;55.00
19039;DHT22;9652;49.014;12.052;2023-07-24T09:11:05;25.50;55.30
19039;DHT22;9652;49.014;12.052;2023-07-24T09:13:34;25.50;55.40
19039;DHT22;9652;49.014;12.052;2023-07-24T09:16:02;25.60;55.30
19039;DHT22;9652;49.014;12.052;2023-07-24T09:18:38;25.70;55.30
19039;DHT22;9652;49.014;12.052;2023-07-24T09:21:06;25.70;55.40
19039;DHT22;9652;49.014;12.052;2023-07-24T09:23:33;25.80;54.80
19039;DHT22;9652;49.014;12.052;2023-07-24T09:26:07;25.90;54.90
19039;DHT22;9652;49.014;12.052;2023-07-24T09:28:34;25.90;55.50
19039;DHT22;9652;49.014;12.052;2023-07-24T09:31:02;25.90;55.20
19039;DHT22;9652;49.014;12.052;2023-07-24T09:33:38;25.90;55.10
19039;DHT22;9652;49.014;12.052;2023-07-24T09:36:07;25.90;55.60
19039;DHT22;9652;49.014;12.052;2023-07-24T09:38:36;25.90;55.20
19039;DHT22;9652;49.014;12.052;2023-07-24T09:41:05;25.90;55.20
19039;DHT22;9652;49.014;12.052;2023-07-24T09:43:33;25.90;55.40
19039;DHT22;9652;49.014;12.052;2023-07-24T09:46:04;26.00;55.50
19039;DHT22;9652;49.014;12.052;2023-07-24T09:48:32;26.10;55.70
19039;DHT22;9652;49.014;12.052;2023-07-24T09:51:01;26.20;55.80
19039;DHT22;9652;49.014;12.052;2023-07-24T09:53:32;26.40;55.90
19039;DHT22;9652;49.014;12.052;2023-07-24T09:56:02;26.70;55.90
19039;DHT22;9652;49.014;12.052;2023-07-24T09:58:36;27.00;55.70
19039;DHT22;9652;49.014;12.052;2023-07-24T10:01:06;27.20;55.10
19039;DHT22;9652;49.014;12.052;2023-07-24T10:03:35;27.60;54.70
19039;DHT22;9652;49.014;12.052;2023-07-24T10:06:05;27.80;54.20
19039;DHT22;9652;49.014;12.052;2023-07-24T10:08:32;28.10;53.90
19039;DHT22;9652;49.014;12.052;2023-07-24T10:11:01;28.30;53.20
19039;DHT22;9652;49.014;12.052;2023-07-24T10:13:28;28.60;52.60
19039;DHT22;9652;49.014;12.052;2023-07-24T10:15:57;28.80;52.00
19039;DHT22;9652;49.014;12.052;2023-07-24T10:18:27;28.90;51.50
19039;DHT22;9652;49.014;12.052;2023-07-24T10:21:00;29.00;50.90
19039;DHT22;9652;49.014;12.052;2023-07-24T10:23:29;29.10;50.50
19039;DHT22;9652;49.014;12.052;2023-07-24T10:26:02;29.20;50.50
19039;DHT22;9652;49.014;12.052;2023-07-24T10:28:31;29.30;50.10
19039;DHT22;9652;49.014;12.052;2023-07-24T10:31:01;29.40;50.30
19039;DHT22;9652;49.014;12.052;2023-07-24T10:33:30;29.60;50.10
19039;DHT22;9652;49.014;12.052;2023-07-24T10:36:04;29.80;50.10
19039;DHT22;9652;49.014;12.052;2023-07-24T10:38:36;30.00;49.00
19039;DHT22;9652;49.014;12.052;2023-07-24T10:41:05;30.20;49.20
19039;DHT22;9652;49.014;12.052;2023-07-24T10:43:41;30.40;49.00
19039;DHT22;9652;49.014;12.052;2023-07-24T10:46:11;30.60;47.80
19039;DHT22;9652;49.014;12.052;2023-07-24T10:48:43;30.80;47.70
19039;DHT22;9652;49.014;12.052;2023-07-24T10:51:11;30.90;47.30
19039;DHT22;9652;49.014;12.052;2023-07-24T10:53:43;31.10;47.00
19039;DHT22;9652;49.014;12.052;2023-07-24T10:56:12;31.10;46.70
19039;DHT22;9652;49.014;12.052;2023-07-24T10:58:40;31.20;46.60
19039;DHT22;9652;49.014;12.052;2023-07-24T11:01:07;31.20;46.40
19039;DHT22;9652;49.014;12.052;2023-07-24T11:03:39;31.30;46.20
19039;DHT22;9652;49.014;12.052;2023-07-24T11:06:12;31.30;46.10
19039;DHT22;9652;49.014;12.052;2023-07-24T11:08:41;31.40;45.80
19039;DHT22;9652;49.014;12.052;2023-07-24T11:11:09;31.40;45.90
19039;DHT22;9652;49.014;12.052;2023-07-24T11:13:38;31.40;45.60
19039;DHT22;9652;49.014;12.052;2023-07-24T11:16:06;31.50;45.50
19039;DHT22;9652;49.014;12.052;2023-07-24T11:18:45;31.50;45.30
19039;DHT22;9652;49.014;12.052;2023-07-24T11:21:14;31.60;44.30
19039;DHT22;9652;49.014;12.052;2023-07-24T11:23:48;31.60;44.90
19039;DHT22;9652;49.014;12.052;2023-07-24T11:26:18;31.70;44.70
19039;DHT22;9652;49.014;12.052;2023-07-24T11:28:46;31.80;44.80
19039;DHT22;9652;49.014;12.052;2023-07-24T11:31:13;31.90;44.80
19039;DHT22;9652;49.014;12.052;2023-07-24T11:33:42;32.00;44.30
19039;DHT22;9652;49.014;12.052;2023-07-24T11:36:12;32.00;44.00
19039;DHT22;9652;49.014;12.052;2023-07-24T11:38:40;32.00;43.60
19039;DHT22;9652;49.014;12.052;2023-07-24T11:41:08;31.90;43.50
19039;DHT22;9652;49.014;12.052;2023-07-24T11:43:35;31.80;43.40
19039;DHT22;9652;49.014;12.052;2023-07-24T11:46:12;31.80;43.50
19039;DHT22;9652;49.014;12.052;2023-07-24T11:48:50;31.60;43.50
19039;DHT22;9652;49.014;12.052;2023-07-24T11:51:19;31.50;43.50
19039;DHT22;9652;49.014;12.052;2023-07-24T11:53:46;31.40;43.60
19039;DHT22;9652;49.014;12.052;2023-07-24T11:56:15;31.20;43.70
19039;DHT22;9652;49.014;12.052;2023-07-24T11:58:43;31.10;44.00
19039;DHT22;9652;49.014;12.052;2023-07-24T12:01:12;30.90;44.20
19039;DHT22;9652;49.014;12.052;2023-07-24T12:03:40;30.80;44.50
19039;DHT22;9652;49.014;12.052;2023-07-24T12:06:15;30.60;44.50
19039;DHT22;9652;49.014;12.052;2023-07-24T12:08:44;30.50;44.90
19039;DHT22;9652;49.014;12.052;2023-07-24T12:11:16;30.30;45.00
19039;DHT22;9652;49.014;12.052;2023-07-24T12:13:44;30.10;45.60
19039;DHT22;9652;49.014;12.052;2023-07-24T12:16:11;30.00;46.40
19039;DHT22;9652;49.014;12.052;2023-07-24T12:18:38;29.90;46.90
19039;DHT22;9652;49.014;12.052;2023-07-24T12:21:05;29.80;47.10
19039;DHT22;9652;49.014;12.052;2023-07-24T12:23:34;29.70;47.40
19039;DHT22;9652;49.014;12.052;2023-07-24T12:26:01;29.50;47.80
19039;DHT22;9652;49.014;12.052;2023-07-24T12:28:28;29.50;48.20
19039;DHT22;9652;49.014;12.052;2023-07-24T12:30:55;29.50;48.50
19039;DHT22;9652;49.014;12.052;2023-07-24T12:33:22;29.50;48.70
19039;DHT22;9652;49.014;12.052;2023-07-24T12:35:49;29.50;48.90
19039;DHT22;9652;49.014;12.052;2023-07-24T12:38:17;29.60;49.10
19039;DHT22;9652;49.014;12.052;2023-07-24T12:40:45;29.70;48.90
19039;DHT22;9652;49.014;12.052;2023-07-24T12:43:14;29.70;48.80
19039;DHT22;9652;49.014;12.052;2023-07-24T12:45:41;29.80;48.60
19039;DHT22;9652;49.014;12.052;2023-07-24T12:48:09;29.80;48.30
19039;DHT22;9652;49.014;12.052;2023-07-24T12:50:36;29.80;49.20
19039;DHT22;9652;49.014;12.052;2023-07-24T12:53:04;29.60;52.90
19039;DHT22;9652;49.014;12.052;2023-07-24T12:55:31;29.40;55.10
19039;DHT22;9652;49.014;12.052;2023-07-24T12:57:59;29.00;56.20
19039;DHT22;9652;49.014;12.052;2023-07-24T13:00:27;28.50;57.20
19039;DHT22;9652;49.014;12.052;2023-07-24T13:02:55;28.00;58.30
19039;DHT22;9652;49.014;12.052;2023-07-24T13:05:23;27.60;59.20
19039;DHT22;9652;49.014;12.052;2023-07-24T13:07:50;27.20;59.90
19039;DHT22;9652;49.014;12.052;2023-07-24T13:10:18;26.80;61.00
19039;DHT22;9652;49.014;12.052;2023-07-24T13:12:46;26.50;61.70
19039;DHT22;9652;49.014;12.052;2023-07-24T13:15:14;26.20;62.30
19039;DHT22;9652;49.014;12.052;2023-07-24T13:17:41;25.90;63.00
19039;DHT22;9652;49.014;12.052;2023-07-24T13:20:10;25.70;63.40
19039;DHT22;9652;49.014;12.052;2023-07-24T13:22:38;25.40;64.00
19039;DHT22;9652;49.014;12.052;2023-07-24T13:25:05;25.20;64.70
19039;DHT22;9652;49.014;12.052;2023-07-24T13:27:33;25.00;65.20
19039;DHT22;9652;49.014;12.052;2023-07-24T13:30:00;24.80;66.10
19039;DHT22;9652;49.014;12.052;2023-07-24T13:32:29;24.70;67.50
19039;DHT22;9652;49.014;12.052;2023-07-24T13:34:56;24.60;69.10
19039;DHT22;9652;49.014;12.052;2023-07-24T13:37:24;24.60;70.60
19039;DHT22;9652;49.014;12.052;2023-07-24T13:39:51;24.70;72.20
19039;DHT22;9652;49.014;12.052;2023-07-24T13:42:22;24.80;73.20
19039;DHT22;9652;49.014;12.052;2023-07-24T13:44:49;25.00;74.20
19039;DHT22;9652;49.014;12.052;2023-07-24T13:47:16;25.20;75.10
19039;DHT22;9652;49.014;12.052;2023-07-24T13:49:44;25.30;74.70
19039;DHT22;9652;49.014;12.052;2023-07-24T13:52:12;25.50;75.30
19039;DHT22;9652;49.014;12.052;2023-07-24T13:54:39;25.60;75.40
19039;DHT22;9652;49.014;12.052;2023-07-24T13:57:06;25.80;75.50
19039;DHT22;9652;49.014;12.052;2023-07-24T13:59:34;26.00;75.80
19039;DHT22;9652;49.014;12.052;2023-07-24T14:02:01;26.20;75.50
19039;DHT22;9652;49.014;12.052;2023-07-24T14:04:28;26.40;75.20
19039;DHT22;9652;49.014;12.052;2023-07-24T14:06:57;26.50;74.60
19039;DHT22;9652;49.014;12.052;2023-07-24T14:09:24;26.60;73.80
19039;DHT22;9652;49.014;12.052;2023-07-24T14:11:51;26.80;73.30
19039;DHT22;9652;49.014;12.052;2023-07-24T14:14:18;26.90;73.20
19039;DHT22;9652;49.014;12.052;2023-07-24T14:16:45;27.00;72.80
19039;DHT22;9652;49.014;12.052;2023-07-24T14:19:12;27.10;72.40
19039;DHT22;9652;49.014;12.052;2023-07-24T14:21:40;27.10;72.20
19039;DHT22;9652;49.014;12.052;2023-07-24T14:24:09;27.30;72.10
19039;DHT22;9652;49.014;12.052;2023-07-24T14:26:36;27.40;71.90
19039;DHT22;9652;49.014;12.052;2023-07-24T14:29:03;27.60;72.60
19039;DHT22;9652;49.014;12.052;2023-07-24T14:31:31;27.90;72.40
19039;DHT22;9652;49.014;12.052;2023-07-24T14:34:00;28.40;72.40
19039;DHT22;9652;49.014;12.052;2023-07-24T14:36:27;28.70;70.90
19039;DHT22;9652;49.014;12.052;2023-07-24T14:38:59;29.00;69.30
19039;DHT22;9652;49.014;12.052;2023-07-24T14:41:28;29.30;66.70
19039;DHT22;9652;49.014;12.052;2023-07-24T14:43:55;29.60;64.10
19039;DHT22;9652;49.014;12.052;2023-07-24T14:46:23;29.70;62.90
19039;DHT22;9652;49.014;12.052;2023-07-24T14:48:50;29.80;62.10
19039;DHT22;9652;49.014;12.052;2023-07-24T14:51:17;30.00;61.40
19039;DHT22;9652;49.014;12.052;2023-07-24T14:53:44;30.10;60.10
19039;DHT22;9652;49.014;12.052;2023-07-24T14:56:11;30.20;59.30
19039;DHT22;9652;49.014;12.052;2023-07-24T14:58:39;30.30;58.80
19039;DHT22;9652;49.014;12.052;2023-07-24T15:01:11;30.30;58.00
19039;DHT22;9652;49.014;12.052;2023-07-24T15:03:38;30.30;57.40
19039;DHT22;9652;49.014;12.052;2023-07-24T15:06:05;30.30;56.80
19039;DHT22;9652;49.014;12.052;2023-07-24T15:08:33;30.20;56.30
19039;DHT22;9652;49.014;12.052;2023-07-24T15:11:00;30.10;56.00
19039;DHT22;9652;49.014;12.052;2023-07-24T15:13:27;30.00;55.80
19039;DHT22;9652;49.014;12.052;2023-07-24T15:15:56;29.90;55.80
19039;DHT22;9652;49.014;12.052;2023-07-24T15:18:23;29.90;55.70
19039;DHT22;9652;49.014;12.052;2023-07-24T15:20:51;29.80;55.10
19039;DHT22;9652;49.014;12.052;2023-07-24T15:23:19;29.80;55.60
19039;DHT22;9652;49.014;12.052;2023-07-24T15:25:46;29.60;55.40
19039;DHT22;9652;49.014;12.052;2023-07-24T15:28:13;29.60;55.40
19039;DHT22;9652;49.014;12.052;2023-07-24T15:30:40;29.50;55.30
19039;DHT22;9652;49.014;12.052;2023-07-24T15:33:08;29.40;55.30
19039;DHT22;9652;49.014;12.052;2023-07-24T15:35:35;29.30;55.20